Terminal Aerodrome Forecast
Issued by NWS Paducah, KY

Home | Current Version | Previous Version | Text Only | Print | Product List | Glossary On
Versions: 1 2 3 4 5 6 7 8 9 10 11 12 13 14 15 16 17 18
630
FTUS43 KPAH 270520
TAFPAH
TAF
KPAH 270520Z 2706/2806 13003KT P6SM BKN250
     FM271000 14004KT 6SM -SHRA OVC050
      TEMPO 2710/2714 3SM TSRA BKN035CB
     FM271400 16006KT P6SM SCT025 BKN150
     FM271800 21008KT P6SM VCTS BKN040CB
     FM280200 VRB04KT P6SM BKN035=

USA.gov is the U.S. government's official web portal to all federal, state and local government web resources and services.